sensor_id;sensor_type;location;lat;lon;timestamp;P1;durP1;ratioP1;P2;durP2;ratioP2
16965;SDS011;8599;47.852;12.070;2022-09-21T00:01:11;6.37;;;3.20;;
16965;SDS011;8599;47.852;12.070;2022-09-21T00:03:39;8.57;;;2.87;;
16965;SDS011;8599;47.852;12.070;2022-09-21T00:06:07;6.77;;;3.33;;
16965;SDS011;8599;47.852;12.070;2022-09-21T00:08:35;5.37;;;3.03;;
16965;SDS011;8599;47.852;12.070;2022-09-21T00:11:02;4.67;;;3.10;;
16965;SDS011;8599;47.852;12.070;2022-09-21T00:13:29;5.83;;;2.90;;
16965;SDS011;8599;47.852;12.070;2022-09-21T00:15:59;6.33;;;3.00;;
16965;SDS011;8599;47.852;12.070;2022-09-21T00:18:26;7.43;;;3.20;;
16965;SDS011;8599;47.852;12.070;2022-09-21T00:20:52;5.93;;;2.90;;
16965;SDS011;8599;47.852;12.070;2022-09-21T00:23:19;8.87;;;3.70;;
16965;SDS011;8599;47.852;12.070;2022-09-21T00:25:47;6.03;;;2.70;;
16965;SDS011;8599;47.852;12.070;2022-09-21T00:28:14;7.03;;;3.40;;
16965;SDS011;8599;47.852;12.070;2022-09-21T00:30:41;6.80;;;2.83;;
16965;SDS011;8599;47.852;12.070;2022-09-21T00:33:09;6.93;;;3.03;;
16965;SDS011;8599;47.852;12.070;2022-09-21T00:35:36;8.17;;;3.60;;
16965;SDS011;8599;47.852;12.070;2022-09-21T00:38:03;7.07;;;3.37;;
16965;SDS011;8599;47.852;12.070;2022-09-21T00:40:30;7.17;;;3.33;;
16965;SDS011;8599;47.852;12.070;2022-09-21T00:43:10;6.70;;;3.30;;
16965;SDS011;8599;47.852;12.070;2022-09-21T00:45:38;7.23;;;3.27;;
16965;SDS011;8599;47.852;12.070;2022-09-21T00:48:05;8.57;;;4.90;;
16965;SDS011;8599;47.852;12.070;2022-09-21T00:50:33;8.67;;;4.50;;
16965;SDS011;8599;47.852;12.070;2022-09-21T00:53:01;7.37;;;3.93;;
16965;SDS011;8599;47.852;12.070;2022-09-21T00:55:31;10.00;;;3.93;;
16965;SDS011;8599;47.852;12.070;2022-09-21T00:58:02;8.00;;;3.53;;
16965;SDS011;8599;47.852;12.070;2022-09-21T01:00:32;13.03;;;4.00;;
16965;SDS011;8599;47.852;12.070;2022-09-21T01:02:59;9.37;;;4.00;;
16965;SDS011;8599;47.852;12.070;2022-09-21T01:05:26;5.37;;;3.73;;
16965;SDS011;8599;47.852;12.070;2022-09-21T01:07:55;8.97;;;4.33;;
16965;SDS011;8599;47.852;12.070;2022-09-21T01:10:24;8.43;;;3.90;;
16965;SDS011;8599;47.852;12.070;2022-09-21T01:12:59;5.80;;;3.73;;
16965;SDS011;8599;47.852;12.070;2022-09-21T01:15:36;7.50;;;3.60;;
16965;SDS011;8599;47.852;12.070;2022-09-21T01:18:10;7.33;;;3.77;;
16965;SDS011;8599;47.852;12.070;2022-09-21T01:23:52;9.27;;;3.70;;
16965;SDS011;8599;47.852;12.070;2022-09-21T01:26:39;6.87;;;4.07;;
16965;SDS011;8599;47.852;12.070;2022-09-21T01:29:20;8.60;;;3.50;;
16965;SDS011;8599;47.852;12.070;2022-09-21T01:31:52;7.67;;;3.73;;
16965;SDS011;8599;47.852;12.070;2022-09-21T01:34:24;7.77;;;4.03;;
16965;SDS011;8599;47.852;12.070;2022-09-21T01:36:57;7.23;;;3.20;;
16965;SDS011;8599;47.852;12.070;2022-09-21T01:39:28;6.03;;;3.30;;
16965;SDS011;8599;47.852;12.070;2022-09-21T01:41:55;10.40;;;3.60;;
16965;SDS011;8599;47.852;12.070;2022-09-21T01:44:25;10.97;;;3.73;;
16965;SDS011;8599;47.852;12.070;2022-09-21T01:46:57;8.93;;;3.63;;
16965;SDS011;8599;47.852;12.070;2022-09-21T01:49:27;5.17;;;3.57;;
16965;SDS011;8599;47.852;12.070;2022-09-21T01:51:59;4.60;;;3.20;;
16965;SDS011;8599;47.852;12.070;2022-09-21T01:54:32;6.67;;;3.10;;
16965;SDS011;8599;47.852;12.070;2022-09-21T01:57:04;8.53;;;3.57;;
16965;SDS011;8599;47.852;12.070;2022-09-21T01:59:39;8.23;;;3.60;;
16965;SDS011;8599;47.852;12.070;2022-09-21T02:02:14;6.33;;;3.47;;
16965;SDS011;8599;47.852;12.070;2022-09-21T02:04:46;5.83;;;3.03;;
16965;SDS011;8599;47.852;12.070;2022-09-21T02:07:14;9.20;;;3.47;;
16965;SDS011;8599;47.852;12.070;2022-09-21T02:09:42;7.47;;;2.97;;
16965;SDS011;8599;47.852;12.070;2022-09-21T02:12:11;12.37;;;3.93;;
16965;SDS011;8599;47.852;12.070;2022-09-21T02:14:39;8.73;;;3.77;;
16965;SDS011;8599;47.852;12.070;2022-09-21T02:17:12;6.50;;;3.43;;
16965;SDS011;8599;47.852;12.070;2022-09-21T02:19:52;6.77;;;3.20;;
16965;SDS011;8599;47.852;12.070;2022-09-21T02:22:30;10.53;;;3.73;;
16965;SDS011;8599;47.852;12.070;2022-09-21T02:25:04;11.03;;;3.40;;
16965;SDS011;8599;47.852;12.070;2022-09-21T02:27:37;6.10;;;2.97;;
16965;SDS011;8599;47.852;12.070;2022-09-21T02:30:13;3.40;;;2.50;;
16965;SDS011;8599;47.852;12.070;2022-09-21T02:32:43;6.17;;;2.97;;
16965;SDS011;8599;47.852;12.070;2022-09-21T02:35:15;4.23;;;3.30;;
16965;SDS011;8599;47.852;12.070;2022-09-21T02:37:53;4.60;;;3.07;;
16965;SDS011;8599;47.852;12.070;2022-09-21T02:40:28;8.90;;;2.90;;
16965;SDS011;8599;47.852;12.070;2022-09-21T02:42:58;7.03;;;3.30;;
16965;SDS011;8599;47.852;12.070;2022-09-21T02:45:31;5.83;;;3.00;;
16965;SDS011;8599;47.852;12.070;2022-09-21T02:48:06;7.00;;;3.03;;
16965;SDS011;8599;47.852;12.070;2022-09-21T02:50:38;8.70;;;3.20;;
16965;SDS011;8599;47.852;12.070;2022-09-21T02:53:09;6.87;;;3.57;;
16965;SDS011;8599;47.852;12.070;2022-09-21T02:55:37;8.07;;;3.63;;
16965;SDS011;8599;47.852;12.070;2022-09-21T02:58:07;8.57;;;4.77;;
16965;SDS011;8599;47.852;12.070;2022-09-21T03:00:40;14.83;;;6.57;;
16965;SDS011;8599;47.852;12.070;2022-09-21T03:03:13;16.90;;;7.47;;
16965;SDS011;8599;47.852;12.070;2022-09-21T03:05:42;18.10;;;7.07;;
16965;SDS011;8599;47.852;12.070;2022-09-21T03:08:10;15.57;;;6.27;;
16965;SDS011;8599;47.852;12.070;2022-09-21T03:10:37;15.87;;;6.10;;
16965;SDS011;8599;47.852;12.070;2022-09-21T03:13:04;9.67;;;5.03;;
16965;SDS011;8599;47.852;12.070;2022-09-21T03:15:33;15.07;;;5.73;;
16965;SDS011;8599;47.852;12.070;2022-09-21T03:18:01;11.57;;;5.53;;
16965;SDS011;8599;47.852;12.070;2022-09-21T03:20:29;10.43;;;4.70;;
16965;SDS011;8599;47.852;12.070;2022-09-21T03:22:56;9.97;;;3.97;;
16965;SDS011;8599;47.852;12.070;2022-09-21T03:25:23;12.10;;;4.00;;
16965;SDS011;8599;47.852;12.070;2022-09-21T03:27:50;11.17;;;5.17;;
16965;SDS011;8599;47.852;12.070;2022-09-21T03:30:17;7.83;;;4.43;;
16965;SDS011;8599;47.852;12.070;2022-09-21T03:32:44;8.70;;;5.47;;
16965;SDS011;8599;47.852;12.070;2022-09-21T03:35:14;7.23;;;4.30;;
16965;SDS011;8599;47.852;12.070;2022-09-21T03:37:41;10.80;;;4.70;;
16965;SDS011;8599;47.852;12.070;2022-09-21T03:40:08;8.27;;;3.90;;
16965;SDS011;8599;47.852;12.070;2022-09-21T03:42:36;5.90;;;3.80;;
16965;SDS011;8599;47.852;12.070;2022-09-21T03:45:04;12.03;;;3.40;;
16965;SDS011;8599;47.852;12.070;2022-09-21T03:47:31;5.43;;;3.57;;
16965;SDS011;8599;47.852;12.070;2022-09-21T03:49:58;8.90;;;3.20;;
16965;SDS011;8599;47.852;12.070;2022-09-21T03:52:26;8.97;;;3.20;;
16965;SDS011;8599;47.852;12.070;2022-09-21T03:54:53;6.40;;;3.50;;
16965;SDS011;8599;47.852;12.070;2022-09-21T03:57:20;9.23;;;3.60;;
16965;SDS011;8599;47.852;12.070;2022-09-21T03:59:47;3.97;;;3.20;;
16965;SDS011;8599;47.852;12.070;2022-09-21T04:02:14;4.17;;;3.07;;
16965;SDS011;8599;47.852;12.070;2022-09-21T04:04:41;6.57;;;3.20;;
16965;SDS011;8599;47.852;12.070;2022-09-21T04:07:07;4.67;;;3.03;;
16965;SDS011;8599;47.852;12.070;2022-09-21T04:09:35;5.97;;;3.27;;
16965;SDS011;8599;47.852;12.070;2022-09-21T04:12:02;4.07;;;3.00;;
16965;SDS011;8599;47.852;12.070;2022-09-21T04:14:29;12.37;;;3.50;;
16965;SDS011;8599;47.852;12.070;2022-09-21T04:16:56;7.20;;;3.50;;
16965;SDS011;8599;47.852;12.070;2022-09-21T04:19:23;7.10;;;3.30;;
16965;SDS011;8599;47.852;12.070;2022-09-21T04:21:50;9.93;;;2.83;;
16965;SDS011;8599;47.852;12.070;2022-09-21T04:24:17;5.97;;;2.83;;
16965;SDS011;8599;47.852;12.070;2022-09-21T04:26:45;4.87;;;3.27;;
16965;SDS011;8599;47.852;12.070;2022-09-21T04:29:12;5.80;;;3.37;;
16965;SDS011;8599;47.852;12.070;2022-09-21T04:31:40;6.93;;;2.93;;
16965;SDS011;8599;47.852;12.070;2022-09-21T04:34:09;9.97;;;3.67;;
16965;SDS011;8599;47.852;12.070;2022-09-21T04:36:38;4.30;;;3.33;;
16965;SDS011;8599;47.852;12.070;2022-09-21T04:39:05;7.60;;;3.43;;
16965;SDS011;8599;47.852;12.070;2022-09-21T04:41:32;5.77;;;3.27;;
16965;SDS011;8599;47.852;12.070;2022-09-21T04:44:00;5.57;;;3.00;;
16965;SDS011;8599;47.852;12.070;2022-09-21T04:46:27;7.03;;;3.53;;
16965;SDS011;8599;47.852;12.070;2022-09-21T04:48:54;7.40;;;3.37;;
16965;SDS011;8599;47.852;12.070;2022-09-21T04:51:21;5.43;;;2.87;;
16965;SDS011;8599;47.852;12.070;2022-09-21T04:53:48;10.83;;;3.90;;
16965;SDS011;8599;47.852;12.070;2022-09-21T04:56:15;8.23;;;3.70;;
16965;SDS011;8599;47.852;12.070;2022-09-21T04:58:42;13.13;;;3.33;;
16965;SDS011;8599;47.852;12.070;2022-09-21T05:01:11;14.47;;;3.90;;
16965;SDS011;8599;47.852;12.070;2022-09-21T05:03:38;10.43;;;4.63;;
16965;SDS011;8599;47.852;12.070;2022-09-21T05:06:04;14.63;;;4.03;;
16965;SDS011;8599;47.852;12.070;2022-09-21T05:08:33;10.63;;;3.60;;
16965;SDS011;8599;47.852;12.070;2022-09-21T05:11:18;8.20;;;3.83;;
16965;SDS011;8599;47.852;12.070;2022-09-21T05:13:45;16.73;;;4.23;;
16965;SDS011;8599;47.852;12.070;2022-09-21T05:16:14;8.93;;;3.40;;
16965;SDS011;8599;47.852;12.070;2022-09-21T05:18:41;16.77;;;4.60;;
16965;SDS011;8599;47.852;12.070;2022-09-21T05:21:08;13.30;;;4.30;;
16965;SDS011;8599;47.852;12.070;2022-09-21T05:23:37;18.73;;;5.27;;
16965;SDS011;8599;47.852;12.070;2022-09-21T05:26:04;28.03;;;5.93;;
16965;SDS011;8599;47.852;12.070;2022-09-21T05:28:32;21.73;;;5.20;;
16965;SDS011;8599;47.852;12.070;2022-09-21T05:31:01;15.20;;;4.43;;
16965;SDS011;8599;47.852;12.070;2022-09-21T05:33:41;9.73;;;4.53;;
16965;SDS011;8599;47.852;12.070;2022-09-21T05:36:16;9.23;;;4.47;;
16965;SDS011;8599;47.852;12.070;2022-09-21T05:38:58;20.23;;;7.90;;
16965;SDS011;8599;47.852;12.070;2022-09-21T05:41:26;17.57;;;6.90;;
16965;SDS011;8599;47.852;12.070;2022-09-21T05:43:53;15.43;;;5.03;;
16965;SDS011;8599;47.852;12.070;2022-09-21T05:46:24;9.97;;;4.07;;
16965;SDS011;8599;47.852;12.070;2022-09-21T05:49:01;10.20;;;5.10;;
16965;SDS011;8599;47.852;12.070;2022-09-21T05:51:32;7.43;;;5.07;;
16965;SDS011;8599;47.852;12.070;2022-09-21T05:54:06;9.20;;;4.60;;
16965;SDS011;8599;47.852;12.070;2022-09-21T05:56:42;9.03;;;5.53;;
16965;SDS011;8599;47.852;12.070;2022-09-21T05:59:29;8.73;;;4.10;;
16965;SDS011;8599;47.852;12.070;2022-09-21T06:02:06;9.37;;;3.90;;
16965;SDS011;8599;47.852;12.070;2022-09-21T06:04:44;13.47;;;4.77;;
16965;SDS011;8599;47.852;12.070;2022-09-21T06:07:13;4.73;;;4.20;;
16965;SDS011;8599;47.852;12.070;2022-09-21T06:09:40;4.83;;;3.63;;
16965;SDS011;8599;47.852;12.070;2022-09-21T06:12:07;10.37;;;4.00;;
16965;SDS011;8599;47.852;12.070;2022-09-21T06:14:35;7.43;;;3.60;;
16965;SDS011;8599;47.852;12.070;2022-09-21T06:17:02;6.30;;;4.40;;
16965;SDS011;8599;47.852;12.070;2022-09-21T06:19:29;10.20;;;4.20;;
16965;SDS011;8599;47.852;12.070;2022-09-21T06:21:57;8.83;;;4.50;;
16965;SDS011;8599;47.852;12.070;2022-09-21T06:24:24;7.63;;;4.47;;
16965;SDS011;8599;47.852;12.070;2022-09-21T06:26:51;6.50;;;4.57;;
16965;SDS011;8599;47.852;12.070;2022-09-21T06:29:18;9.60;;;4.40;;
16965;SDS011;8599;47.852;12.070;2022-09-21T06:31:47;7.37;;;4.50;;
16965;SDS011;8599;47.852;12.070;2022-09-21T06:34:15;7.30;;;4.60;;
16965;SDS011;8599;47.852;12.070;2022-09-21T06:36:42;6.60;;;3.73;;
16965;SDS011;8599;47.852;12.070;2022-09-21T06:39:11;6.03;;;3.70;;
16965;SDS011;8599;47.852;12.070;2022-09-21T06:41:38;9.60;;;3.83;;
16965;SDS011;8599;47.852;12.070;2022-09-21T06:44:05;8.07;;;3.40;;
16965;SDS011;8599;47.852;12.070;2022-09-21T06:46:31;7.53;;;3.70;;
16965;SDS011;8599;47.852;12.070;2022-09-21T06:48:58;5.90;;;3.53;;
16965;SDS011;8599;47.852;12.070;2022-09-21T06:51:25;7.97;;;4.17;;
16965;SDS011;8599;47.852;12.070;2022-09-21T06:53:53;6.03;;;3.40;;
16965;SDS011;8599;47.852;12.070;2022-09-21T06:56:22;8.53;;;3.53;;
16965;SDS011;8599;47.852;12.070;2022-09-21T06:58:50;8.07;;;2.93;;
16965;SDS011;8599;47.852;12.070;2022-09-21T07:01:18;7.23;;;3.03;;
16965;SDS011;8599;47.852;12.070;2022-09-21T07:03:47;6.63;;;2.97;;
16965;SDS011;8599;47.852;12.070;2022-09-21T07:06:15;3.13;;;2.83;;
16965;SDS011;8599;47.852;12.070;2022-09-21T07:08:44;7.30;;;2.93;;
16965;SDS011;8599;47.852;12.070;2022-09-21T07:11:11;5.00;;;2.37;;
16965;SDS011;8599;47.852;12.070;2022-09-21T07:13:40;5.13;;;2.80;;
16965;SDS011;8599;47.852;12.070;2022-09-21T07:16:07;6.03;;;2.90;;
16965;SDS011;8599;47.852;12.070;2022-09-21T07:18:34;3.60;;;2.83;;
16965;SDS011;8599;47.852;12.070;2022-09-21T07:21:02;6.63;;;2.23;;
16965;SDS011;8599;47.852;12.070;2022-09-21T07:23:30;5.80;;;2.90;;
16965;SDS011;8599;47.852;12.070;2022-09-21T07:26:00;6.60;;;3.10;;
16965;SDS011;8599;47.852;12.070;2022-09-21T07:28:27;8.63;;;2.83;;
16965;SDS011;8599;47.852;12.070;2022-09-21T07:30:56;5.67;;;2.80;;
16965;SDS011;8599;47.852;12.070;2022-09-21T07:33:23;5.57;;;2.37;;
16965;SDS011;8599;47.852;12.070;2022-09-21T07:35:51;9.10;;;3.33;;
16965;SDS011;8599;47.852;12.070;2022-09-21T07:38:18;4.30;;;2.63;;
16965;SDS011;8599;47.852;12.070;2022-09-21T07:40:45;7.27;;;3.77;;
16965;SDS011;8599;47.852;12.070;2022-09-21T07:43:12;9.20;;;2.80;;
16965;SDS011;8599;47.852;12.070;2022-09-21T07:45:40;7.90;;;2.20;;
16965;SDS011;8599;47.852;12.070;2022-09-21T07:48:08;3.77;;;2.03;;
16965;SDS011;8599;47.852;12.070;2022-09-21T07:50:35;11.10;;;2.23;;
16965;SDS011;8599;47.852;12.070;2022-09-21T07:53:02;3.33;;;2.03;;
16965;SDS011;8599;47.852;12.070;2022-09-21T07:55:29;4.90;;;2.60;;
16965;SDS011;8599;47.852;12.070;2022-09-21T07:57:56;6.37;;;2.53;;
16965;SDS011;8599;47.852;12.070;2022-09-21T08:00:40;3.93;;;2.40;;
16965;SDS011;8599;47.852;12.070;2022-09-21T08:03:08;3.57;;;2.70;;
16965;SDS011;8599;47.852;12.070;2022-09-21T08:05:36;4.03;;;2.07;;
16965;SDS011;8599;47.852;12.070;2022-09-21T08:08:04;7.63;;;4.10;;
16965;SDS011;8599;47.852;12.070;2022-09-21T08:10:31;5.10;;;2.80;;
16965;SDS011;8599;47.852;12.070;2022-09-21T08:12:59;5.57;;;2.60;;
16965;SDS011;8599;47.852;12.070;2022-09-21T08:15:26;3.80;;;2.20;;
16965;SDS011;8599;47.852;12.070;2022-09-21T08:17:54;8.10;;;2.40;;
16965;SDS011;8599;47.852;12.070;2022-09-21T08:20:24;4.10;;;2.03;;
16965;SDS011;8599;47.852;12.070;2022-09-21T08:22:51;5.67;;;2.40;;
16965;SDS011;8599;47.852;12.070;2022-09-21T08:25:20;5.23;;;2.27;;
16965;SDS011;8599;47.852;12.070;2022-09-21T08:27:49;3.20;;;2.10;;
16965;SDS011;8599;47.852;12.070;2022-09-21T08:30:16;4.33;;;2.00;;
16965;SDS011;8599;47.852;12.070;2022-09-21T08:32:44;6.10;;;2.50;;
16965;SDS011;8599;47.852;12.070;2022-09-21T08:35:13;6.07;;;2.77;;
16965;SDS011;8599;47.852;12.070;2022-09-21T08:37:45;5.30;;;2.67;;
16965;SDS011;8599;47.852;12.070;2022-09-21T08:40:15;3.17;;;2.40;;
16965;SDS011;8599;47.852;12.070;2022-09-21T08:42:49;5.67;;;2.53;;
16965;SDS011;8599;47.852;12.070;2022-09-21T08:45:24;8.63;;;2.63;;
16965;SDS011;8599;47.852;12.070;2022-09-21T08:47:57;6.23;;;2.70;;
16965;SDS011;8599;47.852;12.070;2022-09-21T08:50:27;7.17;;;2.57;;
16965;SDS011;8599;47.852;12.070;2022-09-21T08:53:01;3.63;;;2.80;;
16965;SDS011;8599;47.852;12.070;2022-09-21T08:55:31;5.33;;;2.50;;
16965;SDS011;8599;47.852;12.070;2022-09-21T08:57:58;4.47;;;1.90;;
16965;SDS011;8599;47.852;12.070;2022-09-21T09:00:25;3.60;;;2.10;;
16965;SDS011;8599;47.852;12.070;2022-09-21T09:03:15;4.80;;;1.80;;
16965;SDS011;8599;47.852;12.070;2022-09-21T09:05:52;6.00;;;1.90;;
16965;SDS011;8599;47.852;12.070;2022-09-21T09:08:38;7.50;;;2.70;;
16965;SDS011;8599;47.852;12.070;2022-09-21T09:11:23;5.10;;;2.40;;
16965;SDS011;8599;47.852;12.070;2022-09-21T09:14:04;5.40;;;2.77;;
16965;SDS011;8599;47.852;12.070;2022-09-21T09:16:41;5.17;;;2.30;;
16965;SDS011;8599;47.852;12.070;2022-09-21T09:19:18;5.07;;;2.70;;
16965;SDS011;8599;47.852;12.070;2022-09-21T09:21:49;5.93;;;2.00;;
16965;SDS011;8599;47.852;12.070;2022-09-21T09:24:20;7.50;;;1.70;;
16965;SDS011;8599;47.852;12.070;2022-09-21T09:26:58;8.60;;;2.00;;
16965;SDS011;8599;47.852;12.070;2022-09-21T09:29:30;7.13;;;1.80;;
16965;SDS011;8599;47.852;12.070;2022-09-21T09:32:04;5.37;;;1.57;;
16965;SDS011;8599;47.852;12.070;2022-09-21T09:34:37;3.93;;;1.30;;
16965;SDS011;8599;47.852;12.070;2022-09-21T09:37:09;4.93;;;1.50;;
16965;SDS011;8599;47.852;12.070;2022-09-21T09:39:39;5.63;;;1.70;;
16965;SDS011;8599;47.852;12.070;2022-09-21T09:42:12;5.20;;;2.40;;
16965;SDS011;8599;47.852;12.070;2022-09-21T09:44:59;5.13;;;1.83;;
16965;SDS011;8599;47.852;12.070;2022-09-21T09:47:39;7.60;;;1.90;;
16965;SDS011;8599;47.852;12.070;2022-09-21T09:50:17;5.17;;;1.67;;
16965;SDS011;8599;47.852;12.070;2022-09-21T09:52:50;5.17;;;2.07;;
16965;SDS011;8599;47.852;12.070;2022-09-21T09:55:23;8.53;;;2.03;;
16965;SDS011;8599;47.852;12.070;2022-09-21T09:57:54;3.87;;;1.83;;
16965;SDS011;8599;47.852;12.070;2022-09-21T10:00:22;5.90;;;2.03;;
16965;SDS011;8599;47.852;12.070;2022-09-21T10:02:49;2.43;;;1.40;;
16965;SDS011;8599;47.852;12.070;2022-09-21T10:05:19;3.03;;;1.40;;
16965;SDS011;8599;47.852;12.070;2022-09-21T10:07:48;3.63;;;1.40;;
16965;SDS011;8599;47.852;12.070;2022-09-21T10:10:25;1.70;;;1.40;;
16965;SDS011;8599;47.852;12.070;2022-09-21T10:13:01;4.83;;;2.27;;
16965;SDS011;8599;47.852;12.070;2022-09-21T10:15:31;2.50;;;1.30;;
16965;SDS011;8599;47.852;12.070;2022-09-21T10:18:00;4.83;;;1.40;;
16965;SDS011;8599;47.852;12.070;2022-09-21T10:20:31;3.27;;;1.30;;
16965;SDS011;8599;47.852;12.070;2022-09-21T10:22:59;4.60;;;1.63;;
16965;SDS011;8599;47.852;12.070;2022-09-21T10:25:28;3.90;;;1.50;;
16965;SDS011;8599;47.852;12.070;2022-09-21T10:27:56;2.73;;;1.33;;
16965;SDS011;8599;47.852;12.070;2022-09-21T10:30:30;1.80;;;1.10;;
16965;SDS011;8599;47.852;12.070;2022-09-21T10:32:59;2.60;;;1.27;;
16965;SDS011;8599;47.852;12.070;2022-09-21T10:35:26;4.10;;;0.87;;
16965;SDS011;8599;47.852;12.070;2022-09-21T10:38:10;2.57;;;1.13;;
16965;SDS011;8599;47.852;12.070;2022-09-21T10:40:42;7.50;;;2.27;;
16965;SDS011;8599;47.852;12.070;2022-09-21T10:43:19;3.97;;;1.17;;
16965;SDS011;8599;47.852;12.070;2022-09-21T10:45:53;1.53;;;1.30;;
16965;SDS011;8599;47.852;12.070;2022-09-21T10:48:22;3.57;;;2.30;;
16965;SDS011;8599;47.852;12.070;2022-09-21T10:50:51;2.83;;;0.87;;
16965;SDS011;8599;47.852;12.070;2022-09-21T10:53:21;1.90;;;1.10;;
16965;SDS011;8599;47.852;12.070;2022-09-21T10:55:55;2.83;;;1.10;;
16965;SDS011;8599;47.852;12.070;2022-09-21T10:58:23;2.60;;;1.00;;
16965;SDS011;8599;47.852;12.070;2022-09-21T11:00:51;2.50;;;1.37;;
16965;SDS011;8599;47.852;12.070;2022-09-21T11:06:15;4.43;;;1.60;;
16965;SDS011;8599;47.852;12.070;2022-09-21T11:08:48;4.57;;;1.43;;
16965;SDS011;8599;47.852;12.070;2022-09-21T11:11:28;1.70;;;1.33;;
16965;SDS011;8599;47.852;12.070;2022-09-21T11:14:05;1.10;;;1.00;;
16965;SDS011;8599;47.852;12.070;2022-09-21T11:16:39;2.70;;;1.10;;
16965;SDS011;8599;47.852;12.070;2022-09-21T11:19:12;3.00;;;1.20;;
16965;SDS011;8599;47.852;12.070;2022-09-21T11:21:46;3.30;;;1.00;;
16965;SDS011;8599;47.852;12.070;2022-09-21T11:24:22;3.67;;;1.20;;
16965;SDS011;8599;47.852;12.070;2022-09-21T11:26:57;3.07;;;1.33;;
16965;SDS011;8599;47.852;12.070;2022-09-21T11:29:30;1.83;;;1.00;;
16965;SDS011;8599;47.852;12.070;2022-09-21T11:32:06;1.50;;;0.80;;
16965;SDS011;8599;47.852;12.070;2022-09-21T11:34:44;1.23;;;0.80;;
16965;SDS011;8599;47.852;12.070;2022-09-21T11:37:39;2.40;;;1.10;;
16965;SDS011;8599;47.852;12.070;2022-09-21T11:40:21;1.20;;;0.80;;
16965;SDS011;8599;47.852;12.070;2022-09-21T11:43:06;1.23;;;1.10;;
16965;SDS011;8599;47.852;12.070;2022-09-21T11:45:47;2.70;;;0.90;;
16965;SDS011;8599;47.852;12.070;2022-09-21T11:48:24;3.10;;;0.70;;
16965;SDS011;8599;47.852;12.070;2022-09-21T11:51:02;4.97;;;0.70;;
16965;SDS011;8599;47.852;12.070;2022-09-21T11:53:44;3.33;;;1.00;;
16965;SDS011;8599;47.852;12.070;2022-09-21T11:56:36;1.30;;;0.80;;
16965;SDS011;8599;47.852;12.070;2022-09-21T11:59:16;2.60;;;0.97;;
16965;SDS011;8599;47.852;12.070;2022-09-21T12:01:59;4.20;;;1.10;;
16965;SDS011;8599;47.852;12.070;2022-09-21T12:04:44;1.40;;;0.70;;
16965;SDS011;8599;47.852;12.070;2022-09-21T12:07:21;1.00;;;0.70;;
16965;SDS011;8599;47.852;12.070;2022-09-21T12:10:04;1.23;;;0.80;;
16965;SDS011;8599;47.852;12.070;2022-09-21T12:12:40;2.30;;;0.70;;
16965;SDS011;8599;47.852;12.070;2022-09-21T12:15:18;1.83;;;0.80;;
16965;SDS011;8599;47.852;12.070;2022-09-21T12:17:49;3.40;;;1.20;;
16965;SDS011;8599;47.852;12.070;2022-09-21T12:20:25;6.87;;;1.00;;
16965;SDS011;8599;47.852;12.070;2022-09-21T12:23:01;1.73;;;0.60;;
16965;SDS011;8599;47.852;12.070;2022-09-21T12:25:34;2.20;;;0.97;;
16965;SDS011;8599;47.852;12.070;2022-09-21T12:28:06;2.03;;;1.07;;
16965;SDS011;8599;47.852;12.070;2022-09-21T12:30:40;2.33;;;1.00;;
16965;SDS011;8599;47.852;12.070;2022-09-21T12:33:13;2.00;;;0.80;;
16965;SDS011;8599;47.852;12.070;2022-09-21T12:35:46;1.33;;;0.73;;
16965;SDS011;8599;47.852;12.070;2022-09-21T12:38:16;2.47;;;1.00;;
16965;SDS011;8599;47.852;12.070;2022-09-21T12:40:50;2.33;;;0.87;;
16965;SDS011;8599;47.852;12.070;2022-09-21T12:43:25;3.97;;;0.80;;
16965;SDS011;8599;47.852;12.070;2022-09-21T12:46:00;2.33;;;0.87;;
16965;SDS011;8599;47.852;12.070;2022-09-21T12:48:30;2.57;;;1.00;;
16965;SDS011;8599;47.852;12.070;2022-09-21T12:51:00;1.67;;;0.70;;
16965;SDS011;8599;47.852;12.070;2022-09-21T12:53:30;1.67;;;0.70;;
16965;SDS011;8599;47.852;12.070;2022-09-21T12:56:00;3.60;;;0.90;;
16965;SDS011;8599;47.852;12.070;2022-09-21T12:58:43;2.53;;;1.10;;
16965;SDS011;8599;47.852;12.070;2022-09-21T13:01:20;1.53;;;0.80;;
16965;SDS011;8599;47.852;12.070;2022-09-21T13:03:57;6.80;;;0.90;;
16965;SDS011;8599;47.852;12.070;2022-09-21T13:06:40;1.70;;;0.70;;
16965;SDS011;8599;47.852;12.070;2022-09-21T13:09:16;1.47;;;1.03;;
16965;SDS011;8599;47.852;12.070;2022-09-21T13:11:49;2.10;;;0.80;;
16965;SDS011;8599;47.852;12.070;2022-09-21T13:14:20;2.50;;;0.60;;
16965;SDS011;8599;47.852;12.070;2022-09-21T13:16:53;1.07;;;0.80;;
16965;SDS011;8599;47.852;12.070;2022-09-21T13:19:23;0.60;;;0.60;;
16965;SDS011;8599;47.852;12.070;2022-09-21T13:22:08;1.33;;;0.80;;
16965;SDS011;8599;47.852;12.070;2022-09-21T13:24:37;1.37;;;0.77;;
16965;SDS011;8599;47.852;12.070;2022-09-21T13:27:06;2.27;;;1.33;;
16965;SDS011;8599;47.852;12.070;2022-09-21T13:29:34;1.77;;;0.90;;
16965;SDS011;8599;47.852;12.070;2022-09-21T13:32:19;2.17;;;0.70;;
16965;SDS011;8599;47.852;12.070;2022-09-21T13:34:47;3.40;;;0.70;;
16965;SDS011;8599;47.852;12.070;2022-09-21T13:37:24;2.73;;;0.60;;
16965;SDS011;8599;47.852;12.070;2022-09-21T13:39:56;1.83;;;0.70;;
16965;SDS011;8599;47.852;12.070;2022-09-21T13:43:40;1.90;;;0.77;;
16965;SDS011;8599;47.852;12.070;2022-09-21T13:49:15;2.27;;;0.53;;
16965;SDS011;8599;47.852;12.070;2022-09-21T13:51:49;0.67;;;0.50;;
16965;SDS011;8599;47.852;12.070;2022-09-21T13:54:18;1.80;;;0.57;;
16965;SDS011;8599;47.852;12.070;2022-09-21T13:56:55;4.10;;;0.70;;
16965;SDS011;8599;47.852;12.070;2022-09-21T13:59:28;3.47;;;0.80;;
16965;SDS011;8599;47.852;12.070;2022-09-21T14:01:57;1.13;;;0.77;;
16965;SDS011;8599;47.852;12.070;2022-09-21T14:04:26;0.93;;;0.50;;
16965;SDS011;8599;47.852;12.070;2022-09-21T14:06:56;3.37;;;0.70;;
16965;SDS011;8599;47.852;12.070;2022-09-21T14:09:29;1.13;;;0.87;;
16965;SDS011;8599;47.852;12.070;2022-09-21T14:12:00;4.90;;;0.60;;
16965;SDS011;8599;47.852;12.070;2022-09-21T14:14:30;2.03;;;0.60;;
16965;SDS011;8599;47.852;12.070;2022-09-21T14:17:01;1.70;;;0.70;;
16965;SDS011;8599;47.852;12.070;2022-09-21T14:22:36;1.70;;;0.60;;
16965;SDS011;8599;47.852;12.070;2022-09-21T14:27:58;2.37;;;0.63;;
16965;SDS011;8599;47.852;12.070;2022-09-21T14:30:29;0.90;;;0.43;;
16965;SDS011;8599;47.852;12.070;2022-09-21T14:33:09;1.40;;;0.77;;
16965;SDS011;8599;47.852;12.070;2022-09-21T14:35:44;6.70;;;0.70;;
16965;SDS011;8599;47.852;12.070;2022-09-21T14:38:14;1.77;;;1.00;;
16965;SDS011;8599;47.852;12.070;2022-09-21T14:40:45;1.40;;;0.90;;
16965;SDS011;8599;47.852;12.070;2022-09-21T14:43:15;5.90;;;1.20;;
16965;SDS011;8599;47.852;12.070;2022-09-21T14:45:49;3.37;;;0.80;;
16965;SDS011;8599;47.852;12.070;2022-09-21T14:48:31;1.33;;;0.83;;
16965;SDS011;8599;47.852;12.070;2022-09-21T14:51:06;2.97;;;0.67;;
16965;SDS011;8599;47.852;12.070;2022-09-21T14:54:02;2.13;;;0.70;;
16965;SDS011;8599;47.852;12.070;2022-09-21T14:56:45;1.05;;;0.50;;
16965;SDS011;8599;47.852;12.070;2022-09-21T14:59:26;2.42;;;0.70;;
16965;SDS011;8599;47.852;12.070;2022-09-21T15:02:11;0.57;;;0.52;;
16965;SDS011;8599;47.852;12.070;2022-09-21T15:04:56;2.55;;;0.85;;
16965;SDS011;8599;47.852;12.070;2022-09-21T15:07:39;2.03;;;0.60;;
16965;SDS011;8599;47.852;12.070;2022-09-21T15:10:29;0.70;;;0.60;;
16965;SDS011;8599;47.852;12.070;2022-09-21T15:13:19;2.80;;;0.63;;
16965;SDS011;8599;47.852;12.070;2022-09-21T15:16:03;1.60;;;0.60;;
16965;SDS011;8599;47.852;12.070;2022-09-21T15:18:41;5.57;;;1.30;;
16965;SDS011;8599;47.852;12.070;2022-09-21T15:21:17;2.03;;;1.00;;
16965;SDS011;8599;47.852;12.070;2022-09-21T15:23:49;1.23;;;0.80;;
16965;SDS011;8599;47.852;12.070;2022-09-21T15:26:18;3.87;;;0.87;;
16965;SDS011;8599;47.852;12.070;2022-09-21T15:28:52;2.80;;;0.77;;